Aérodrome :
LOGIN :

S'inscrire | Disclaimer

   EN    FR    IT 

 










Légende :    VFR   VFR Marginal   IFR   IFR Intensif   IFR Très Intensif
Visi : 
Plafond : 
>= 8 km
>= 3000ft
5 à 8 km
1000 à 3000 ft
1500m à 5 km
500 à 1000 ft
800 à 1500m
200 à 500 ft
< 800m
< 200 ft
Symboles :   Orages  Brouillard  Fortes neiges  Fortes précipitations  Vent > 20 kt
SIGMETs :   Divers  Orages  Givrage  Turbulence  Onde Orograph.  Cendres Volcan.






- Altitude de l'aérodrome : 2096 ft
- Code IATA : AUR


LFLW - Aurillac

DERNIER METAR :
  • 141830Z AUTO 00000KT 9999 ////// 03/02 Q0996

METARs EXPIRÉS :
  • 141800Z AUTO 00000KT 9999 ////// 03/02 Q0996
  • 141730Z AUTO VRB02KT 9999 ////// 03/02 Q0996
  • 141700Z AUTO VRB01KT 9999 ////// 03/02 Q0996
  • 141630Z AUTO VRB03KT 9999 ////// 03/02 Q0996
  • 141600Z AUTO VRB01KT 9999 ////// 03/02 Q0996

TAF TAF LFLW
Valide du 14 à 15h jusqu'au 15 à 00h UTC


141400Z 1415/1424 VRB03KT 9999 BKN011
TEMPO 1415/1419 SCT020TCU
TEMPO 1415/1419 4000 SHRA
PROB30 1418/1419 -SHSNRA
BECMG 1419/1420 BKN018



MET'MAP, la Météo Aéronautique d'un coup d'oeil ! - Copyright ORBIFLY Décembre 2007 - Disclaimer

ORBIFLY MET'MAP TEAM :

Programmation & Développement : Alexandra Zaïnal
Conception & Développement : Baudouin d'Aumeries
Co-Programmation & Développement : Marc-Olivier Méhu
Soutien technique & logistique : Manuel Goepfert

Contact : metmap@orbifly.com




SOURCES & CREDITS :

   NOAA